Country
Station

 

Weather  for  Kajaani  -  Finland    Finland

  
3 °C (37 °F)
    
 
 

Current METAR for Kajaani is :

EFKI 161250Z AUTO 14004KT 120V180 9999 OVC041 03/01 Q1018

 

This is a report for Kajaani - Finland.
 
The report was made 17 minutes ago, at 12:50 UTC .
The wind was blowing at a speed of 2.1 meters per second (4.6 miles per hour) from southeast (140°), varying between east/southeast (120°) and south (180°).
 
The temperature was 3 °C (37 °F), with a dew-point at 1 °C (34 °F).
The temperature felt like 1 °C (33 °F).
 
The atmospheric pressure was 1018 hPa (30.06 inHg).
The relative humidity was 86.7%.
 
The sky was overcast from a height of 1250 meter (4100 feet)
 
The overall visibility was greater than 10 kilometers (6.2 miles).
 

 
 
 
 

Country :   A   B   C   D   E   F   G   H   I   J   K   L   M   N   O   P   Q   R   S   T   U   V   W   Y   Z

 

Site Info  |  Disclaimer  |  Credits  |  Privacy
Contact us  |  Add to favorites
© 2013-2019 METARs - All rights reserved